sensor_id;sensor_type;location;lat;lon;timestamp;temperature;humidity
25154;DHT22;47555;51.038;6.280;2023-04-01T00:01:19;9.60;99.90
25154;DHT22;47555;51.038;6.280;2023-04-01T00:03:45;9.60;99.90
25154;DHT22;47555;51.038;6.280;2023-04-01T00:06:13;9.60;99.90
25154;DHT22;47555;51.038;6.280;2023-04-01T00:08:39;9.50;99.90
25154;DHT22;47555;51.038;6.280;2023-04-01T00:11:05;9.50;99.90
25154;DHT22;47555;51.038;6.280;2023-04-01T00:13:30;9.50;99.90
25154;DHT22;47555;51.038;6.280;2023-04-01T00:15:56;9.50;99.90
25154;DHT22;47555;51.038;6.280;2023-04-01T00:18:22;9.50;99.90
25154;DHT22;47555;51.038;6.280;2023-04-01T00:20:50;9.50;99.90
25154;DHT22;47555;51.038;6.280;2023-04-01T00:23:17;9.50;99.90
25154;DHT22;47555;51.038;6.280;2023-04-01T00:25:45;9.50;99.90
25154;DHT22;47555;51.038;6.280;2023-04-01T00:28:12;9.50;99.90
25154;DHT22;47555;51.038;6.280;2023-04-01T00:30:38;9.50;99.90
25154;DHT22;47555;51.038;6.280;2023-04-01T00:33:04;9.50;99.90
25154;DHT22;47555;51.038;6.280;2023-04-01T00:35:30;9.50;99.90
25154;DHT22;47555;51.038;6.280;2023-04-01T00:37:55;9.50;99.90
25154;DHT22;47555;51.038;6.280;2023-04-01T00:40:34;9.50;99.90
25154;DHT22;47555;51.038;6.280;2023-04-01T00:43:01;9.50;99.90
25154;DHT22;47555;51.038;6.280;2023-04-01T00:45:35;9.40;99.90
25154;DHT22;47555;51.038;6.280;2023-04-01T00:48:07;9.50;99.90
25154;DHT22;47555;51.038;6.280;2023-04-01T00:50:34;9.50;99.90
25154;DHT22;47555;51.038;6.280;2023-04-01T00:53:01;9.40;99.90
25154;DHT22;47555;51.038;6.280;2023-04-01T00:55:29;9.50;99.90
25154;DHT22;47555;51.038;6.280;2023-04-01T00:57:57;9.50;99.90
25154;DHT22;47555;51.038;6.280;2023-04-01T01:00:23;9.50;99.90
25154;DHT22;47555;51.038;6.280;2023-04-01T01:02:50;9.60;99.90
25154;DHT22;47555;51.038;6.280;2023-04-01T01:05:17;9.50;99.90
25154;DHT22;47555;51.038;6.280;2023-04-01T01:08:09;9.60;99.90
25154;DHT22;47555;51.038;6.280;2023-04-01T01:10:39;9.60;99.90
25154;DHT22;47555;51.038;6.280;2023-04-01T01:13:16;9.60;99.90
25154;DHT22;47555;51.038;6.280;2023-04-01T01:16:10;9.60;99.90
25154;DHT22;47555;51.038;6.280;2023-04-01T01:19:12;9.50;99.90
25154;DHT22;47555;51.038;6.280;2023-04-01T01:22:03;9.50;99.90
25154;DHT22;47555;51.038;6.280;2023-04-01T01:24:37;9.50;99.90
25154;DHT22;47555;51.038;6.280;2023-04-01T01:27:16;9.50;99.90
25154;DHT22;47555;51.038;6.280;2023-04-01T01:29:48;9.50;99.90
25154;DHT22;47555;51.038;6.280;2023-04-01T01:35:37;9.50;99.90
25154;DHT22;47555;51.038;6.280;2023-04-01T01:38:07;9.50;99.90
25154;DHT22;47555;51.038;6.280;2023-04-01T01:40:34;9.50;99.90
25154;DHT22;47555;51.038;6.280;2023-04-01T01:43:05;9.50;99.90
25154;DHT22;47555;51.038;6.280;2023-04-01T01:45:34;9.40;99.90
25154;DHT22;47555;51.038;6.280;2023-04-01T01:48:02;9.40;99.90
25154;DHT22;47555;51.038;6.280;2023-04-01T01:50:30;9.40;99.90
25154;DHT22;47555;51.038;6.280;2023-04-01T01:53:02;9.40;99.90
25154;DHT22;47555;51.038;6.280;2023-04-01T01:55:35;9.40;99.90
25154;DHT22;47555;51.038;6.280;2023-04-01T02:00:39;9.40;99.90
25154;DHT22;47555;51.038;6.280;2023-04-01T02:03:07;9.40;99.90
25154;DHT22;47555;51.038;6.280;2023-04-01T02:05:33;9.40;99.90
25154;DHT22;47555;51.038;6.280;2023-04-01T02:08:10;9.40;99.90
25154;DHT22;47555;51.038;6.280;2023-04-01T02:10:41;9.40;99.90
25154;DHT22;47555;51.038;6.280;2023-04-01T02:13:18;9.40;99.90
25154;DHT22;47555;51.038;6.280;2023-04-01T02:15:47;9.40;99.90
25154;DHT22;47555;51.038;6.280;2023-04-01T02:18:15;9.50;99.90
25154;DHT22;47555;51.038;6.280;2023-04-01T02:20:42;9.40;99.90
25154;DHT22;47555;51.038;6.280;2023-04-01T02:23:09;9.40;99.90
25154;DHT22;47555;51.038;6.280;2023-04-01T02:25:36;9.50;99.90
25154;DHT22;47555;51.038;6.280;2023-04-01T02:28:04;9.50;99.90
25154;DHT22;47555;51.038;6.280;2023-04-01T02:30:33;9.40;99.90
25154;DHT22;47555;51.038;6.280;2023-04-01T02:33:00;9.40;99.90
25154;DHT22;47555;51.038;6.280;2023-04-01T02:35:26;9.40;99.90
25154;DHT22;47555;51.038;6.280;2023-04-01T02:37:54;9.30;99.90
25154;DHT22;47555;51.038;6.280;2023-04-01T02:40:20;9.40;99.90
25154;DHT22;47555;51.038;6.280;2023-04-01T02:42:46;9.40;99.90
25154;DHT22;47555;51.038;6.280;2023-04-01T02:45:12;9.40;99.90
25154;DHT22;47555;51.038;6.280;2023-04-01T02:47:38;9.40;99.90
25154;DHT22;47555;51.038;6.280;2023-04-01T02:50:05;9.30;99.90
25154;DHT22;47555;51.038;6.280;2023-04-01T02:52:31;9.30;99.90
25154;DHT22;47555;51.038;6.280;2023-04-01T02:54:57;9.30;99.90
25154;DHT22;47555;51.038;6.280;2023-04-01T02:57:23;9.30;99.90
25154;DHT22;47555;51.038;6.280;2023-04-01T02:59:49;9.30;99.90
25154;DHT22;47555;51.038;6.280;2023-04-01T03:02:15;9.30;99.90
25154;DHT22;47555;51.038;6.280;2023-04-01T03:04:41;9.30;99.90
25154;DHT22;47555;51.038;6.280;2023-04-01T03:07:08;9.40;99.90
25154;DHT22;47555;51.038;6.280;2023-04-01T03:09:36;9.30;99.90
25154;DHT22;47555;51.038;6.280;2023-04-01T03:12:02;9.30;99.90
25154;DHT22;47555;51.038;6.280;2023-04-01T03:14:27;9.30;99.90
25154;DHT22;47555;51.038;6.280;2023-04-01T03:16:53;9.30;99.90
25154;DHT22;47555;51.038;6.280;2023-04-01T03:19:18;9.30;99.90
25154;DHT22;47555;51.038;6.280;2023-04-01T03:21:44;9.30;99.90
25154;DHT22;47555;51.038;6.280;2023-04-01T03:24:10;9.30;99.90
25154;DHT22;47555;51.038;6.280;2023-04-01T03:26:36;9.30;99.90
25154;DHT22;47555;51.038;6.280;2023-04-01T03:29:01;9.30;99.90
25154;DHT22;47555;51.038;6.280;2023-04-01T03:31:27;9.30;99.90
25154;DHT22;47555;51.038;6.280;2023-04-01T03:33:53;9.30;99.90
25154;DHT22;47555;51.038;6.280;2023-04-01T03:36:18;9.30;99.90
25154;DHT22;47555;51.038;6.280;2023-04-01T03:38:44;9.30;99.90
25154;DHT22;47555;51.038;6.280;2023-04-01T03:41:16;9.30;99.90
25154;DHT22;47555;51.038;6.280;2023-04-01T03:43:43;9.30;99.90
25154;DHT22;47555;51.038;6.280;2023-04-01T03:46:09;9.30;99.90
25154;DHT22;47555;51.038;6.280;2023-04-01T03:48:35;9.30;99.90
25154;DHT22;47555;51.038;6.280;2023-04-01T03:51:01;9.30;99.90
25154;DHT22;47555;51.038;6.280;2023-04-01T03:53:26;9.30;99.90
25154;DHT22;47555;51.038;6.280;2023-04-01T03:55:52;9.30;99.90
25154;DHT22;47555;51.038;6.280;2023-04-01T03:58:19;9.30;99.90
25154;DHT22;47555;51.038;6.280;2023-04-01T04:00:44;9.30;99.90
25154;DHT22;47555;51.038;6.280;2023-04-01T04:03:10;9.30;99.90
25154;DHT22;47555;51.038;6.280;2023-04-01T04:05:36;9.30;99.90
25154;DHT22;47555;51.038;6.280;2023-04-01T04:08:02;9.30;99.90
25154;DHT22;47555;51.038;6.280;2023-04-01T04:10:28;9.30;99.90
25154;DHT22;47555;51.038;6.280;2023-04-01T04:12:55;9.30;99.90
25154;DHT22;47555;51.038;6.280;2023-04-01T04:15:22;9.40;99.90
25154;DHT22;47555;51.038;6.280;2023-04-01T04:17:48;9.30;99.90
25154;DHT22;47555;51.038;6.280;2023-04-01T04:20:14;9.30;99.90
25154;DHT22;47555;51.038;6.280;2023-04-01T04:22:40;9.30;99.90
25154;DHT22;47555;51.038;6.280;2023-04-01T04:25:06;9.30;99.90
25154;DHT22;47555;51.038;6.280;2023-04-01T04:27:32;9.30;99.90
25154;DHT22;47555;51.038;6.280;2023-04-01T04:29:58;9.30;99.90
25154;DHT22;47555;51.038;6.280;2023-04-01T04:32:24;9.30;99.90
25154;DHT22;47555;51.038;6.280;2023-04-01T04:34:50;9.30;99.90
25154;DHT22;47555;51.038;6.280;2023-04-01T04:37:15;9.30;99.90
25154;DHT22;47555;51.038;6.280;2023-04-01T04:39:41;9.30;99.90
25154;DHT22;47555;51.038;6.280;2023-04-01T04:42:07;9.30;99.90
25154;DHT22;47555;51.038;6.280;2023-04-01T04:44:32;9.30;99.90
25154;DHT22;47555;51.038;6.280;2023-04-01T04:46:58;9.30;99.90
25154;DHT22;47555;51.038;6.280;2023-04-01T04:49:23;9.30;99.90
25154;DHT22;47555;51.038;6.280;2023-04-01T04:51:49;9.30;99.90
25154;DHT22;47555;51.038;6.280;2023-04-01T04:54:15;9.30;99.90
25154;DHT22;47555;51.038;6.280;2023-04-01T04:56:41;9.30;99.90
25154;DHT22;47555;51.038;6.280;2023-04-01T04:59:07;9.30;99.90
25154;DHT22;47555;51.038;6.280;2023-04-01T05:01:33;9.30;99.90
25154;DHT22;47555;51.038;6.280;2023-04-01T05:03:59;9.30;99.90
25154;DHT22;47555;51.038;6.280;2023-04-01T05:06:25;9.30;99.90
25154;DHT22;47555;51.038;6.280;2023-04-01T05:08:55;9.30;99.90
25154;DHT22;47555;51.038;6.280;2023-04-01T05:11:22;9.30;99.90
25154;DHT22;47555;51.038;6.280;2023-04-01T05:13:48;9.30;99.90
25154;DHT22;47555;51.038;6.280;2023-04-01T05:16:17;9.30;99.90
25154;DHT22;47555;51.038;6.280;2023-04-01T05:18:42;9.30;99.90
25154;DHT22;47555;51.038;6.280;2023-04-01T05:21:12;9.30;99.90
25154;DHT22;47555;51.038;6.280;2023-04-01T05:23:38;9.30;99.90
25154;DHT22;47555;51.038;6.280;2023-04-01T05:26:11;9.30;99.90
25154;DHT22;47555;51.038;6.280;2023-04-01T05:28:37;9.30;99.90
25154;DHT22;47555;51.038;6.280;2023-04-01T05:31:05;9.30;99.90
25154;DHT22;47555;51.038;6.280;2023-04-01T05:33:31;9.30;99.90
25154;DHT22;47555;51.038;6.280;2023-04-01T05:36:14;9.30;99.90
25154;DHT22;47555;51.038;6.280;2023-04-01T05:38:40;9.30;99.90
25154;DHT22;47555;51.038;6.280;2023-04-01T05:41:07;9.30;99.90
25154;DHT22;47555;51.038;6.280;2023-04-01T05:43:36;9.30;99.90
25154;DHT22;47555;51.038;6.280;2023-04-01T05:46:01;9.30;99.90
25154;DHT22;47555;51.038;6.280;2023-04-01T05:48:27;9.30;99.90
25154;DHT22;47555;51.038;6.280;2023-04-01T05:50:52;9.30;99.90
25154;DHT22;47555;51.038;6.280;2023-04-01T05:53:18;9.30;99.90
25154;DHT22;47555;51.038;6.280;2023-04-01T05:55:43;9.30;99.90
25154;DHT22;47555;51.038;6.280;2023-04-01T05:58:09;9.30;99.90
25154;DHT22;47555;51.038;6.280;2023-04-01T06:00:35;9.30;99.90
25154;DHT22;47555;51.038;6.280;2023-04-01T06:03:00;9.30;99.90
25154;DHT22;47555;51.038;6.280;2023-04-01T06:05:33;9.30;99.90
25154;DHT22;47555;51.038;6.280;2023-04-01T06:08:09;9.30;99.90
25154;DHT22;47555;51.038;6.280;2023-04-01T06:11:40;9.40;99.90
25154;DHT22;47555;51.038;6.280;2023-04-01T06:19:40;9.40;99.90
25154;DHT22;47555;51.038;6.280;2023-04-01T06:30:47;9.30;99.90
25154;DHT22;47555;51.038;6.280;2023-04-01T06:33:59;9.10;99.90
25154;DHT22;47555;51.038;6.280;2023-04-01T06:36:25;9.30;99.90
25154;DHT22;47555;51.038;6.280;2023-04-01T06:42:29;9.30;99.90
25154;DHT22;47555;51.038;6.280;2023-04-01T06:47:59;9.30;99.90
25154;DHT22;47555;51.038;6.280;2023-04-01T06:55:55;9.30;99.90
25154;DHT22;47555;51.038;6.280;2023-04-01T06:58:39;9.40;99.90
25154;DHT22;47555;51.038;6.280;2023-04-01T07:01:10;9.30;99.90
25154;DHT22;47555;51.038;6.280;2023-04-01T07:03:44;9.30;99.90
25154;DHT22;47555;51.038;6.280;2023-04-01T07:06:25;9.40;99.90
25154;DHT22;47555;51.038;6.280;2023-04-01T07:08:54;9.40;99.90
25154;DHT22;47555;51.038;6.280;2023-04-01T07:11:33;9.40;99.90
25154;DHT22;47555;51.038;6.280;2023-04-01T07:17:17;9.30;99.90
25154;DHT22;47555;51.038;6.280;2023-04-01T07:20:01;9.40;99.90
25154;DHT22;47555;51.038;6.280;2023-04-01T07:22:38;9.40;99.90
25154;DHT22;47555;51.038;6.280;2023-04-01T07:25:17;9.40;99.90
25154;DHT22;47555;51.038;6.280;2023-04-01T07:27:44;9.40;99.90
25154;DHT22;47555;51.038;6.280;2023-04-01T07:30:18;9.40;99.90
25154;DHT22;47555;51.038;6.280;2023-04-01T07:32:51;9.40;99.90
25154;DHT22;47555;51.038;6.280;2023-04-01T07:35:42;9.40;99.90
25154;DHT22;47555;51.038;6.280;2023-04-01T07:40:52;9.40;99.90
25154;DHT22;47555;51.038;6.280;2023-04-01T07:47:04;9.50;99.90
25154;DHT22;47555;51.038;6.280;2023-04-01T07:55:47;9.50;99.90
25154;DHT22;47555;51.038;6.280;2023-04-01T08:01:14;9.50;99.90
25154;DHT22;47555;51.038;6.280;2023-04-01T08:06:25;9.60;99.90
25154;DHT22;47555;51.038;6.280;2023-04-01T08:09:15;9.50;99.90
25154;DHT22;47555;51.038;6.280;2023-04-01T08:12:08;9.50;99.90
25154;DHT22;47555;51.038;6.280;2023-04-01T08:17:58;9.60;99.90
25154;DHT22;47555;51.038;6.280;2023-04-01T08:20:53;9.60;99.90
25154;DHT22;47555;51.038;6.280;2023-04-01T08:23:28;9.60;99.90
25154;DHT22;47555;51.038;6.280;2023-04-01T08:26:08;9.60;99.90
25154;DHT22;47555;51.038;6.280;2023-04-01T08:28:52;9.70;99.90
25154;DHT22;47555;51.038;6.280;2023-04-01T08:31:37;9.60;99.90
25154;DHT22;47555;51.038;6.280;2023-04-01T08:34:12;9.60;99.90
25154;DHT22;47555;51.038;6.280;2023-04-01T08:36:45;9.60;99.90
25154;DHT22;47555;51.038;6.280;2023-04-01T08:39:20;9.60;99.90
25154;DHT22;47555;51.038;6.280;2023-04-01T08:50:22;9.70;99.90
25154;DHT22;47555;51.038;6.280;2023-04-01T08:53:21;9.70;99.90
25154;DHT22;47555;51.038;6.280;2023-04-01T08:56:18;9.70;99.90
25154;DHT22;47555;51.038;6.280;2023-04-01T09:07:47;9.80;99.90
25154;DHT22;47555;51.038;6.280;2023-04-01T09:10:36;9.80;99.90
25154;DHT22;47555;51.038;6.280;2023-04-01T09:13:50;9.80;99.90
25154;DHT22;47555;51.038;6.280;2023-04-01T09:19:54;9.90;99.90
25154;DHT22;47555;51.038;6.280;2023-04-01T09:22:32;9.90;99.90
25154;DHT22;47555;51.038;6.280;2023-04-01T09:28:10;9.90;99.90
25154;DHT22;47555;51.038;6.280;2023-04-01T09:44:28;9.90;99.90
25154;DHT22;47555;51.038;6.280;2023-04-01T09:55:50;10.00;99.90
25154;DHT22;47555;51.038;6.280;2023-04-01T10:04:27;10.10;99.90
25154;DHT22;47555;51.038;6.280;2023-04-01T10:07:01;10.10;99.90
25154;DHT22;47555;51.038;6.280;2023-04-01T10:09:34;10.10;99.90
25154;DHT22;47555;51.038;6.280;2023-04-01T10:18:36;10.00;99.90
25154;DHT22;47555;51.038;6.280;2023-04-01T10:27:15;9.90;99.90
25154;DHT22;47555;51.038;6.280;2023-04-01T10:44:19;9.90;99.90
25154;DHT22;47555;51.038;6.280;2023-04-01T10:52:52;10.00;99.90
25154;DHT22;47555;51.038;6.280;2023-04-01T11:00:45;10.10;99.90
25154;DHT22;47555;51.038;6.280;2023-04-01T11:09:47;10.20;99.90
25154;DHT22;47555;51.038;6.280;2023-04-01T11:15:46;10.30;99.90
25154;DHT22;47555;51.038;6.280;2023-04-01T11:18:54;10.30;99.90
25154;DHT22;47555;51.038;6.280;2023-04-01T11:21:46;10.30;99.90
25154;DHT22;47555;51.038;6.280;2023-04-01T11:30:22;10.40;99.90
25154;DHT22;47555;51.038;6.280;2023-04-01T11:39:01;10.60;99.90
25154;DHT22;47555;51.038;6.280;2023-04-01T11:41:45;10.60;99.90
25154;DHT22;47555;51.038;6.280;2023-04-01T11:44:20;10.60;99.90
25154;DHT22;47555;51.038;6.280;2023-04-01T11:57:52;10.90;99.90
25154;DHT22;47555;51.038;6.280;2023-04-01T12:00:51;10.90;99.90
25154;DHT22;47555;51.038;6.280;2023-04-01T12:03:41;11.00;99.90
25154;DHT22;47555;51.038;6.280;2023-04-01T12:09:38;11.00;99.90
25154;DHT22;47555;51.038;6.280;2023-04-01T12:12:16;11.00;99.90
25154;DHT22;47555;51.038;6.280;2023-04-01T12:15:13;11.00;99.90
25154;DHT22;47555;51.038;6.280;2023-04-01T12:18:13;11.00;99.90
25154;DHT22;47555;51.038;6.280;2023-04-01T12:26:20;11.00;99.90
25154;DHT22;47555;51.038;6.280;2023-04-01T12:29:08;11.10;99.90
25154;DHT22;47555;51.038;6.280;2023-04-01T12:34:44;11.20;99.90
25154;DHT22;47555;51.038;6.280;2023-04-01T12:40:45;11.20;99.90
25154;DHT22;47555;51.038;6.280;2023-04-01T12:43:44;11.10;99.90
25154;DHT22;47555;51.038;6.280;2023-04-01T12:46:23;11.10;99.90
25154;DHT22;47555;51.038;6.280;2023-04-01T13:02:40;11.10;99.90
25154;DHT22;47555;51.038;6.280;2023-04-01T13:10:50;11.40;99.90
25154;DHT22;47555;51.038;6.280;2023-04-01T13:13:29;11.30;99.90
25154;DHT22;47555;51.038;6.280;2023-04-01T13:16:20;11.30;99.90
25154;DHT22;47555;51.038;6.280;2023-04-01T13:21:54;11.10;99.90
25154;DHT22;47555;51.038;6.280;2023-04-01T13:27:31;11.20;99.90
25154;DHT22;47555;51.038;6.280;2023-04-01T13:33:08;11.10;99.90
25154;DHT22;47555;51.038;6.280;2023-04-01T13:35:53;11.10;99.90
25154;DHT22;47555;51.038;6.280;2023-04-01T13:43:52;11.00;99.90
25154;DHT22;47555;51.038;6.280;2023-04-01T13:46:48;11.10;99.90
25154;DHT22;47555;51.038;6.280;2023-04-01T13:49:41;10.80;99.90
25154;DHT22;47555;51.038;6.280;2023-04-01T14:12:19;10.70;99.90
25154;DHT22;47555;51.038;6.280;2023-04-01T14:15:23;10.70;99.90
25154;DHT22;47555;51.038;6.280;2023-04-01T14:18:24;10.70;99.90
25154;DHT22;47555;51.038;6.280;2023-04-01T14:24:20;10.70;99.90
25154;DHT22;47555;51.038;6.280;2023-04-01T14:32:52;10.70;99.90
25154;DHT22;47555;51.038;6.280;2023-04-01T14:35:37;10.70;99.90
25154;DHT22;47555;51.038;6.280;2023-04-01T14:47:13;10.70;99.90
25154;DHT22;47555;51.038;6.280;2023-04-01T14:49:43;10.70;99.90
25154;DHT22;47555;51.038;6.280;2023-04-01T14:52:32;10.60;99.90
25154;DHT22;47555;51.038;6.280;2023-04-01T14:55:15;10.60;99.90
25154;DHT22;47555;51.038;6.280;2023-04-01T14:57:59;10.60;99.90
25154;DHT22;47555;51.038;6.280;2023-04-01T15:00:25;10.60;99.90
25154;DHT22;47555;51.038;6.280;2023-04-01T15:03:02;10.60;99.90
25154;DHT22;47555;51.038;6.280;2023-04-01T15:05:52;10.70;99.90
25154;DHT22;47555;51.038;6.280;2023-04-01T15:08:27;10.80;99.90
25154;DHT22;47555;51.038;6.280;2023-04-01T15:11:18;10.80;99.90
25154;DHT22;47555;51.038;6.280;2023-04-01T15:20:00;10.60;99.90
25154;DHT22;47555;51.038;6.280;2023-04-01T15:25:51;10.50;99.90
25154;DHT22;47555;51.038;6.280;2023-04-01T15:31:12;10.50;99.90
25154;DHT22;47555;51.038;6.280;2023-04-01T15:34:07;10.50;99.90
25154;DHT22;47555;51.038;6.280;2023-04-01T15:45:31;10.40;99.90
25154;DHT22;47555;51.038;6.280;2023-04-01T15:56:52;10.40;99.90
25154;DHT22;47555;51.038;6.280;2023-04-01T16:03:35;10.30;99.90
25154;DHT22;47555;51.038;6.280;2023-04-01T16:09:04;10.20;99.90
25154;DHT22;47555;51.038;6.280;2023-04-01T16:11:45;10.20;99.90
25154;DHT22;47555;51.038;6.280;2023-04-01T16:23:08;10.10;99.90
25154;DHT22;47555;51.038;6.280;2023-04-01T16:28:24;10.00;99.90
25154;DHT22;47555;51.038;6.280;2023-04-01T16:33:58;10.00;99.90
25154;DHT22;47555;51.038;6.280;2023-04-01T16:40:09;10.00;99.90
25154;DHT22;47555;51.038;6.280;2023-04-01T16:43:04;10.00;99.90
25154;DHT22;47555;51.038;6.280;2023-04-01T16:48:12;10.00;99.90
25154;DHT22;47555;51.038;6.280;2023-04-01T16:50:55;9.90;99.90
25154;DHT22;47555;51.038;6.280;2023-04-01T16:53:46;9.90;99.90
25154;DHT22;47555;51.038;6.280;2023-04-01T16:56:29;9.90;99.90
25154;DHT22;47555;51.038;6.280;2023-04-01T16:59:27;9.90;99.90
25154;DHT22;47555;51.038;6.280;2023-04-01T17:02:04;9.80;99.90
25154;DHT22;47555;51.038;6.280;2023-04-01T17:05:01;9.80;99.90
25154;DHT22;47555;51.038;6.280;2023-04-01T17:13:43;9.80;99.90
25154;DHT22;47555;51.038;6.280;2023-04-01T17:16:18;9.70;99.90
25154;DHT22;47555;51.038;6.280;2023-04-01T17:30:12;9.60;99.90
25154;DHT22;47555;51.038;6.280;2023-04-01T17:32:56;9.60;99.90
25154;DHT22;47555;51.038;6.280;2023-04-01T17:41:08;9.60;99.90
25154;DHT22;47555;51.038;6.280;2023-04-01T17:44:03;9.50;99.90
25154;DHT22;47555;51.038;6.280;2023-04-01T17:51:55;9.50;99.90
25154;DHT22;47555;51.038;6.280;2023-04-01T17:54:53;9.50;99.90
25154;DHT22;47555;51.038;6.280;2023-04-01T18:00:38;9.40;99.90
25154;DHT22;47555;51.038;6.280;2023-04-01T18:14:13;9.40;99.90
25154;DHT22;47555;51.038;6.280;2023-04-01T18:17:00;9.30;99.90
25154;DHT22;47555;51.038;6.280;2023-04-01T18:19:44;9.30;99.90
25154;DHT22;47555;51.038;6.280;2023-04-01T18:22:44;9.30;99.90
25154;DHT22;47555;51.038;6.280;2023-04-01T18:25:27;9.30;99.90
25154;DHT22;47555;51.038;6.280;2023-04-01T18:28:18;9.30;99.90
25154;DHT22;47555;51.038;6.280;2023-04-01T18:31:16;9.30;99.90
25154;DHT22;47555;51.038;6.280;2023-04-01T18:39:04;9.30;99.90
25154;DHT22;47555;51.038;6.280;2023-04-01T18:44:49;9.30;99.90
25154;DHT22;47555;51.038;6.280;2023-04-01T18:52:43;9.20;99.90
25154;DHT22;47555;51.038;6.280;2023-04-01T18:55:29;9.20;99.90
25154;DHT22;47555;51.038;6.280;2023-04-01T18:58:11;9.20;99.90
25154;DHT22;47555;51.038;6.280;2023-04-01T19:01:01;9.20;99.90
25154;DHT22;47555;51.038;6.280;2023-04-01T19:03:38;9.20;99.90
25154;DHT22;47555;51.038;6.280;2023-04-01T19:07:01;9.20;99.90
25154;DHT22;47555;51.038;6.280;2023-04-01T19:09:20;9.20;99.90
25154;DHT22;47555;51.038;6.280;2023-04-01T19:12:06;9.20;99.90
25154;DHT22;47555;51.038;6.280;2023-04-01T19:14:59;9.20;99.90
25154;DHT22;47555;51.038;6.280;2023-04-01T19:26:05;9.20;99.90
25154;DHT22;47555;51.038;6.280;2023-04-01T19:28:50;9.20;99.90
25154;DHT22;47555;51.038;6.280;2023-04-01T19:34:13;9.10;99.90
25154;DHT22;47555;51.038;6.280;2023-04-01T19:37:02;9.10;99.90
25154;DHT22;47555;51.038;6.280;2023-04-01T19:39:39;9.10;99.90
25154;DHT22;47555;51.038;6.280;2023-04-01T19:42:28;9.10;99.90
25154;DHT22;47555;51.038;6.280;2023-04-01T19:48:00;9.10;99.90
25154;DHT22;47555;51.038;6.280;2023-04-01T19:53:25;9.10;99.90
25154;DHT22;47555;51.038;6.280;2023-04-01T19:56:16;9.10;99.90
25154;DHT22;47555;51.038;6.280;2023-04-01T20:04:16;9.10;99.90
25154;DHT22;47555;51.038;6.280;2023-04-01T20:07:00;9.10;99.90
25154;DHT22;47555;51.038;6.280;2023-04-01T20:09:46;9.10;99.90
25154;DHT22;47555;51.038;6.280;2023-04-01T20:12:34;9.10;99.90
25154;DHT22;47555;51.038;6.280;2023-04-01T20:15:40;9.10;99.90
25154;DHT22;47555;51.038;6.280;2023-04-01T20:18:20;9.10;99.90
25154;DHT22;47555;51.038;6.280;2023-04-01T20:20:59;9.10;99.90
25154;DHT22;47555;51.038;6.280;2023-04-01T20:23:43;9.10;99.90
25154;DHT22;47555;51.038;6.280;2023-04-01T20:26:20;9.10;99.90
25154;DHT22;47555;51.038;6.280;2023-04-01T20:29:07;9.10;99.90
25154;DHT22;47555;51.038;6.280;2023-04-01T20:31:42;9.10;99.90
25154;DHT22;47555;51.038;6.280;2023-04-01T20:43:07;9.10;99.90
25154;DHT22;47555;51.038;6.280;2023-04-01T20:45:58;9.10;99.90
25154;DHT22;47555;51.038;6.280;2023-04-01T20:54:24;9.10;99.90
25154;DHT22;47555;51.038;6.280;2023-04-01T20:57:05;9.10;99.90
25154;DHT22;47555;51.038;6.280;2023-04-01T21:05:56;9.20;99.90
25154;DHT22;47555;51.038;6.280;2023-04-01T21:08:36;9.30;99.90
25154;DHT22;47555;51.038;6.280;2023-04-01T21:21:59;9.40;99.90
25154;DHT22;47555;51.038;6.280;2023-04-01T21:24:42;9.40;99.90
25154;DHT22;47555;51.038;6.280;2023-04-01T21:27:52;9.40;99.90
25154;DHT22;47555;51.038;6.280;2023-04-01T21:41:41;9.30;99.90
25154;DHT22;47555;51.038;6.280;2023-04-01T22:01:33;9.20;99.90
25154;DHT22;47555;51.038;6.280;2023-04-01T22:09:51;9.00;99.90
25154;DHT22;47555;51.038;6.280;2023-04-01T22:12:31;9.00;99.90
25154;DHT22;47555;51.038;6.280;2023-04-01T22:17:58;9.00;99.90
25154;DHT22;47555;51.038;6.280;2023-04-01T22:20:50;8.90;99.90
25154;DHT22;47555;51.038;6.280;2023-04-01T22:26:10;8.90;99.90
25154;DHT22;47555;51.038;6.280;2023-04-01T22:31:07;8.90;99.90
25154;DHT22;47555;51.038;6.280;2023-04-01T22:39:47;8.80;99.90
25154;DHT22;47555;51.038;6.280;2023-04-01T22:42:44;8.80;99.90
25154;DHT22;47555;51.038;6.280;2023-04-01T22:45:18;8.70;99.90
25154;DHT22;47555;51.038;6.280;2023-04-01T22:48:01;8.70;99.90
25154;DHT22;47555;51.038;6.280;2023-04-01T22:53:45;8.60;99.90
25154;DHT22;47555;51.038;6.280;2023-04-01T22:56:29;8.60;99.90
25154;DHT22;47555;51.038;6.280;2023-04-01T22:59:01;8.50;99.90
25154;DHT22;47555;51.038;6.280;2023-04-01T23:01:34;8.60;99.90
25154;DHT22;47555;51.038;6.280;2023-04-01T23:04:04;8.50;99.90
25154;DHT22;47555;51.038;6.280;2023-04-01T23:06:38;8.50;99.90
25154;DHT22;47555;51.038;6.280;2023-04-01T23:09:14;8.50;99.90
25154;DHT22;47555;51.038;6.280;2023-04-01T23:11:50;8.40;99.90
25154;DHT22;47555;51.038;6.280;2023-04-01T23:16:54;8.40;99.90
25154;DHT22;47555;51.038;6.280;2023-04-01T23:19:45;8.30;99.90
25154;DHT22;47555;51.038;6.280;2023-04-01T23:22:21;8.30;99.90
25154;DHT22;47555;51.038;6.280;2023-04-01T23:24:55;8.30;99.90
25154;DHT22;47555;51.038;6.280;2023-04-01T23:30:00;8.20;99.90
25154;DHT22;47555;51.038;6.280;2023-04-01T23:32:26;8.20;99.90
25154;DHT22;47555;51.038;6.280;2023-04-01T23:34:54;8.20;99.90
25154;DHT22;47555;51.038;6.280;2023-04-01T23:37:22;8.10;99.90
25154;DHT22;47555;51.038;6.280;2023-04-01T23:39:54;8.10;99.90
25154;DHT22;47555;51.038;6.280;2023-04-01T23:44:47;8.00;99.90
25154;DHT22;47555;51.038;6.280;2023-04-01T23:47:22;8.00;99.90
25154;DHT22;47555;51.038;6.280;2023-04-01T23:49:53;8.00;99.90
25154;DHT22;47555;51.038;6.280;2023-04-01T23:52:26;8.00;99.90
25154;DHT22;47555;51.038;6.280;2023-04-01T23:54:56;8.00;99.90
25154;DHT22;47555;51.038;6.280;2023-04-01T23:57:30;8.00;99.90
